Time;durP1;ratioP1;P1;durP2;ratioP2;P2;SDS_P1;SDS_P2;PMS_P1;PMS_P2;Temp;Humidity;BMP_temperature;BMP_pressure;BME280_temperature;BME280_humidity;BME280_pressure;Samples;Min_cycle;Max_cycle;Signal;HPM_P1;HPM_P2
2021/10/13 00:01:09;;;;;;;10.95;3.60;;;;;;;13.52;55.48;99106.47;5052815;28;20035;-53
2021/10/13 00:03:35;;;;;;;14.88;4.35;;;;;;;13.45;55.26;99107.50;5051518;28;20021;-52
2021/10/13 00:06:00;;;;;;;9.60;4.30;;;;;;;13.35;55.61;99098.19;5051325;28;20032;-53
2021/10/13 00:08:26;;;;;;;5.10;3.58;;;;;;;13.22;55.78;99098.22;5051466;28;20348;-53
2021/10/13 00:10:52;;;;;;;12.68;4.78;;;;;;;13.14;56.26;99096.63;5052681;28;20100;-53
2021/10/13 00:13:18;;;;;;;8.95;3.97;;;;;;;13.10;55.77;99099.84;5052630;28;20098;-52
2021/10/13 00:15:44;;;;;;;6.47;3.80;;;;;;;12.97;56.52;99096.22;5051252;28;20128;-53
2021/10/13 00:18:10;;;;;;;7.65;4.05;;;;;;;13.02;56.32;99093.00;5052527;28;20025;-52
2021/10/13 00:20:36;;;;;;;9.10;3.72;;;;;;;13.07;56.52;99110.81;5051177;28;20108;-52
2021/10/13 00:23:02;;;;;;;7.55;4.07;;;;;;;13.13;56.18;99096.81;5052410;28;20109;-53
2021/10/13 00:25:28;;;;;;;8.73;4.10;;;;;;;13.10;56.53;99097.22;5052384;28;20491;-52
2021/10/13 00:27:53;;;;;;;12.10;4.32;;;;;;;13.10;56.30;99095.41;5051009;28;20023;-53
2021/10/13 00:30:19;;;;;;;13.23;4.88;;;;;;;13.11;56.42;99090.94;5052288;28;20032;-52
2021/10/13 00:32:45;;;;;;;7.72;4.15;;;;;;;12.91;56.68;99091.78;5050721;28;20124;-53
2021/10/13 00:35:11;;;;;;;9.40;4.60;;;;;;;12.81;57.18;99099.28;5050887;28;20117;-53
2021/10/13 00:37:37;;;;;;;6.65;3.85;;;;;;;12.67;57.46;99103.75;5052222;28;20407;-53
2021/10/13 00:40:06;;;;;;;14.75;5.75;;;;;;;12.64;57.58;99096.28;5052429;28;20032;-53
2021/10/13 00:42:32;;;;;;;11.63;4.93;;;;;;;12.48;57.38;99101.97;5050780;28;20029;-53
2021/10/13 00:44:58;;;;;;;8.98;3.80;;;;;;;12.45;58.19;99097.09;5050666;28;20031;-53
2021/10/13 00:47:24;;;;;;;9.32;4.60;;;;;;;12.42;58.09;99094.88;5050760;28;20036;-53
2021/10/13 00:49:50;;;;;;;15.45;4.68;;;;;;;12.40;58.13;99097.69;5051646;28;20017;-53
2021/10/13 00:52:17;;;;;;;8.65;3.90;;;;;;;12.41;58.87;99098.50;5051947;28;20108;-53
2021/10/13 00:54:43;;;;;;;7.10;4.38;;;;;;;12.50;58.25;99099.94;5050645;28;20021;-53
2021/10/13 00:57:09;;;;;;;11.30;4.70;;;;;;;12.42;58.54;99102.75;5051883;28;20032;-53
2021/10/13 00:59:35;;;;;;;11.77;5.13;;;;;;;12.29;58.92;99104.34;5051874;28;20017;-52
2021/10/13 01:02:13;;;;;;;6.68;4.13;;;;;;;12.15;59.19;99097.44;5051808;28;20021;-52
2021/10/13 01:05:07;;;;;;;9.30;4.43;;;;;;;12.02;59.82;99098.25;5050520;28;20052;-52
2021/10/13 01:07:57;;;;;;;9.85;5.00;;;;;;;12.12;59.64;99095.25;5043365;28;20415;-52
2021/10/13 01:10:41;;;;;;;12.85;4.65;;;;;;;12.19;59.60;99093.41;5051795;28;20025;-53
2021/10/13 01:13:23;;;;;;;8.57;5.03;;;;;;;12.32;59.25;99092.63;5050497;28;20025;-53
2021/10/13 01:16:01;;;;;;;10.23;4.45;;;;;;;12.27;59.14;99092.41;5051728;28;20094;-52
2021/10/13 01:18:53;;;;;;;11.63;4.30;;;;;;;11.93;59.61;99099.44;5050414;28;20032;-53
2021/10/13 01:21:49;;;;;;;10.68;4.32;;;;;;;11.66;60.21;99099.31;5048861;28;20043;-52
2021/10/13 01:24:38;;;;;;;;;;;;;;;11.44;60.12;99100.47;5050697;28;20036;-53
2021/10/13 01:27:37;;;;;;;9.57;3.78;;;;;;;11.23;61.57;99103.97;5050982;28;19913;-52
2021/10/13 01:30:04;;;;;;;8.25;4.68;;;;;;;11.05;61.90;99107.94;5051542;28;20028;-52
2021/10/13 01:32:38;;;;;;;11.38;5.10;;;;;;;10.90;62.97;99105.41;5051339;28;20406;-52
2021/10/13 01:35:06;;;;;;;9.68;4.93;;;;;;;10.82;63.31;99102.91;5050209;28;20021;-52
2021/10/13 01:37:50;;;;;;;10.48;4.45;;;;;;;10.71;63.60;99106.09;5050180;28;20430;-52
2021/10/13 01:40:19;;;;;;;9.93;4.75;;;;;;;10.65;64.11;99098.97;5050176;28;20089;-52
2021/10/13 01:42:49;;;;;;;9.30;4.28;;;;;;;10.60;64.09;99102.16;5051460;28;20032;-52
2021/10/13 01:45:16;;;;;;;41.00;36.90;;;;;;;10.51;64.81;99105.94;5051631;28;20013;-53
2021/10/13 01:47:46;;;;;;;17.83;8.50;;;;;;;10.64;65.21;99107.84;5051404;28;20017;-52
2021/10/13 01:50:13;;;;;;;13.20;4.95;;;;;;;10.68;64.97;99114.34;5049974;28;20330;-52
2021/10/13 01:52:40;;;;;;;9.15;3.95;;;;;;;10.59;64.57;99111.84;5051325;28;20040;-52
2021/10/13 01:55:06;;;;;;;9.40;4.57;;;;;;;10.61;64.68;99105.63;5051339;28;20025;-53
2021/10/13 01:57:36;;;;;;;8.88;4.40;;;;;;;10.57;65.07;99107.78;5050003;28;20079;-52
2021/10/13 02:00:07;;;;;;;14.63;8.60;;;;;;;10.56;64.88;99109.63;5051261;28;20032;-52
2021/10/13 02:02:34;;;;;;;12.65;4.82;;;;;;;10.64;65.11;99113.91;5052729;28;20040;-52
2021/10/13 02:05:01;;;;;;;11.00;4.78;;;;;;;10.86;64.58;99114.66;5054924;28;20029;-53
2021/10/13 02:07:29;;;;;;;13.68;5.70;;;;;;;10.95;64.29;99117.97;5053778;28;20048;-52
2021/10/13 02:09:58;;;;;;;11.38;3.97;;;;;;;10.94;64.55;99117.16;5054923;28;20388;-53
2021/10/13 02:12:27;;;;;;;8.82;4.10;;;;;;;11.07;64.05;99115.63;5053693;28;20025;-53
2021/10/13 02:14:54;;;;;;;11.05;4.03;;;;;;;11.17;63.98;99110.84;5054865;28;20406;-53
2021/10/13 02:17:22;;;;;;;11.27;4.28;;;;;;;11.32;63.75;99108.88;5053475;28;20037;-52
2021/10/13 02:19:51;;;;;;;12.18;4.70;;;;;;;11.48;63.64;99114.81;5054791;28;20013;-52
2021/10/13 02:22:19;;;;;;;10.63;4.30;;;;;;;11.48;63.26;99106.94;5054752;28;20025;-52
2021/10/13 02:24:51;;;;;;;12.23;4.57;;;;;;;11.58;63.28;99115.28;5054663;28;20021;-52
2021/10/13 02:27:28;;;;;;;13.05;4.38;;;;;;;11.57;62.90;99111.84;5054624;28;20055;-52
2021/10/13 02:29:53;;;;;;;12.75;4.00;;;;;;;11.55;62.70;99111.22;5054692;28;20029;-52
2021/10/13 02:32:19;;;;;;;23.25;5.07;;;;;;;11.61;62.73;99109.63;5053010;28;20131;-53
2021/10/13 02:34:45;;;;;;;22.42;4.70;;;;;;;11.73;62.61;99110.69;5053184;28;20108;-53
2021/10/13 02:37:11;;;;;;;22.45;5.63;;;;;;;11.75;62.34;99107.84;5054496;28;20021;-52
2021/10/13 02:39:37;;;;;;;12.43;5.15;;;;;;;11.73;62.02;99112.47;5054471;28;20059;-53
2021/10/13 02:42:03;;;;;;;11.15;4.38;;;;;;;11.70;62.46;99115.53;5054314;28;20025;-52
2021/10/13 02:44:29;;;;;;;12.25;4.30;;;;;;;11.64;62.42;99124.19;5054273;28;20037;-52
2021/10/13 02:47:17;;;;;;;19.60;6.35;;;;;;;11.65;62.76;99118.75;5054258;28;20051;-53
2021/10/13 02:49:57;;;;;;;15.75;9.52;;;;;;;11.66;62.27;99123.00;5052938;28;20116;-52
2021/10/13 02:52:47;;;;;;;20.90;6.72;;;;;;;11.56;62.32;99127.81;5054243;28;20029;-52
2021/10/13 02:55:21;;;;;;;14.20;5.13;;;;;;;11.48;62.91;99127.97;5054429;28;20040;-53
2021/10/13 02:58:26;;;;;;;23.10;8.03;;;;;;;11.45;63.14;99128.34;5054196;28;20494;-53
2021/10/13 03:00:53;;;;;;;19.50;5.05;;;;;;;11.58;62.86;99131.03;5052876;28;20037;-52
2021/10/13 03:04:00;;;;;;;34.63;28.42;;;;;;;11.81;62.51;99128.09;5053955;28;20487;-52
2021/10/13 03:06:41;;;;;;;15.73;5.05;;;;;;;11.92;62.03;99124.94;5033229;28;20503;-52
2021/10/13 03:09:08;;;;;;;15.10;5.05;;;;;;;12.15;61.79;99121.13;5053858;28;20033;-52
2021/10/13 03:11:36;;;;;;;17.38;5.00;;;;;;;12.41;61.26;99115.09;5053861;28;20400;-52
2021/10/13 03:14:02;;;;;;;14.95;9.65;;;;;;;12.62;60.60;99113.31;5052159;28;20029;-52
2021/10/13 03:16:28;;;;;;;8.88;4.65;;;;;;;12.74;60.46;99122.22;5052420;28;20033;-53
2021/10/13 03:18:56;;;;;;;7.00;3.40;;;;;;;12.72;60.26;99129.50;5053593;28;20036;-53
2021/10/13 03:21:28;;;;;;;10.07;4.25;;;;;;;12.56;60.30;99123.63;5052353;28;20094;-53
2021/10/13 03:23:54;;;;;;;23.23;5.80;;;;;;;12.39;60.52;99125.00;5052331;28;20037;-53
2021/10/13 03:26:19;;;;;;;17.52;6.13;;;;;;;12.53;60.87;99123.22;5052166;28;20159;-52
2021/10/13 03:28:45;;;;;;;18.58;4.40;;;;;;;12.75;60.39;99124.63;5053513;28;20029;-53
2021/10/13 03:31:11;;;;;;;15.45;4.60;;;;;;;12.94;59.48;99125.63;5052094;28;20025;-53
2021/10/13 03:33:37;;;;;;;18.83;5.57;;;;;;;13.09;59.35;99124.59;5051932;28;20045;-53
2021/10/13 03:36:08;;;;;;;17.45;4.55;;;;;;;13.13;58.87;99123.97;5052063;28;20033;-53
2021/10/13 03:38:34;;;;;;;15.27;5.53;;;;;;;13.08;58.81;99128.22;5053356;28;20021;-52
2021/10/13 03:41:00;;;;;;;10.40;4.40;;;;;;;12.96;59.24;99120.16;5053234;28;20029;-53
2021/10/13 03:43:26;;;;;;;15.77;7.60;;;;;;;12.94;59.42;99123.00;5053244;28;20565;-53
2021/10/13 03:45:51;;;;;;;13.68;4.85;;;;;;;12.97;59.38;99116.50;5053387;28;20060;-53
2021/10/13 03:48:17;;;;;;;15.15;4.78;;;;;;;12.98;59.43;99120.78;5053181;28;20045;-53
2021/10/13 03:50:43;;;;;;;14.18;4.68;;;;;;;13.14;59.12;99122.16;5053066;28;20020;-53
2021/10/13 03:53:09;;;;;;;9.00;4.03;;;;;;;13.22;58.76;99124.56;5053317;28;20554;-53
2021/10/13 03:55:35;;;;;;;9.48;4.68;;;;;;;13.11;59.00;99122.56;5053019;28;20029;-53
2021/10/13 03:58:01;;;;;;;14.15;6.20;;;;;;;12.88;59.01;99128.28;5052922;28;20067;-52
2021/10/13 04:00:27;;;;;;;11.32;4.10;;;;;;;12.59;59.56;99125.84;5052899;28;20471;-53
2021/10/13 04:02:53;;;;;;;11.70;8.07;;;;;;;12.43;61.06;99131.50;5052865;28;20021;-52
2021/10/13 04:05:19;;;;;;;11.35;5.72;;;;;;;12.36;62.73;99139.41;5052699;28;20044;-52
2021/10/13 04:07:44;;;;;;;11.50;5.00;;;;;;;12.24;63.73;99134.94;5052757;28;20075;-53
2021/10/13 04:10:13;;;;;;;10.68;4.82;;;;;;;12.07;63.59;99132.66;5051395;28;20390;-52
2021/10/13 04:12:39;;;;;;;14.18;6.20;;;;;;;11.84;63.61;99137.44;5051350;28;20029;-52
2021/10/13 04:15:08;;;;;;;13.20;5.38;;;;;;;11.76;63.71;99136.56;5051250;28;20035;-53
2021/10/13 04:17:34;;;;;;;8.18;4.35;;;;;;;11.79;64.00;99132.72;5052614;28;20021;-52
2021/10/13 04:20:05;;;;;;;14.55;4.72;;;;;;;11.87;63.40;99142.28;5051220;28;20028;-52
2021/10/13 04:22:31;;;;;;;15.35;5.80;;;;;;;11.81;63.42;99138.59;5052411;28;20021;-52
2021/10/13 04:24:57;;;;;;;21.27;6.25;;;;;;;11.82;63.51;99144.69;5051694;28;20452;-52
2021/10/13 04:27:22;;;;;;;18.10;5.30;;;;;;;11.93;63.68;99154.66;5051076;28;20025;-53
2021/10/13 04:29:48;;;;;;;15.75;5.50;;;;;;;12.09;63.08;99162.22;5051104;28;20029;-53
2021/10/13 04:32:14;;;;;;;36.80;6.15;;;;;;;12.23;62.79;99155.16;5050763;28;20503;-53
2021/10/13 04:34:39;;;;;;;59.35;8.48;;;;;;;12.27;62.21;99164.28;5051022;28;20021;-53
2021/10/13 04:37:05;;;;;;;48.88;8.25;;;;;;;12.30;62.59;99157.81;5052260;28;20027;-53
2021/10/13 04:39:31;;;;;;;41.88;7.32;;;;;;;12.31;62.38;99156.78;5050967;28;20028;-53
2021/10/13 04:41:56;;;;;;;40.80;7.30;;;;;;;12.28;62.50;99159.84;5050891;28;20391;-53
2021/10/13 04:44:22;;;;;;;36.55;8.02;;;;;;;12.36;62.33;99159.66;5050891;28;20402;-53
2021/10/13 04:46:48;;;;;;;41.15;9.35;;;;;;;12.61;62.09;99159.88;5052013;28;20432;-52
2021/10/13 04:49:13;;;;;;;33.85;6.82;;;;;;;12.96;60.88;99157.84;5051064;28;20495;-53
2021/10/13 04:51:39;;;;;;;38.90;7.50;;;;;;;13.18;60.22;99152.34;5050663;28;20102;-53
2021/10/13 04:54:05;;;;;;;31.98;7.55;;;;;;;13.36;59.92;99157.81;5051998;28;20020;-52
2021/10/13 04:56:30;;;;;;;27.65;5.47;;;;;;;13.29;59.32;99149.09;5051970;28;20083;-52
2021/10/13 04:58:56;;;;;;;22.83;5.13;;;;;;;13.10;59.87;99142.00;5050612;28;20403;-53
2021/10/13 05:01:22;;;;;;;32.28;6.30;;;;;;;13.30;60.02;99153.38;5051849;28;20040;-53
2021/10/13 05:03:48;;;;;;;42.30;10.98;;;;;;;13.45;59.40;99154.97;5051844;28;20043;-53
2021/10/13 05:06:13;;;;;;;27.27;5.45;;;;;;;13.61;58.86;99154.50;5050647;28;20044;-52
2021/10/13 05:08:39;;;;;;;88.55;12.18;;;;;;;13.74;58.47;99149.19;5050424;28;20032;-52
2021/10/13 05:11:05;;;;;;;43.95;8.85;;;;;;;13.89;58.32;99151.53;5050431;28;20029;-53
2021/10/13 05:13:30;;;;;;;35.78;7.10;;;;;;;14.03;57.78;99159.41;5051739;28;20025;-52
2021/10/13 05:15:56;;;;;;;27.95;5.72;;;;;;;14.11;57.63;99152.03;5050341;28;20051;-52
2021/10/13 05:18:21;;;;;;;28.30;5.60;;;;;;;14.21;57.20;99153.41;5051724;28;20028;-53
2021/10/13 05:20:48;;;;;;;18.83;5.53;;;;;;;14.23;57.08;99151.38;5050271;28;20029;-53
2021/10/13 05:23:13;;;;;;;26.23;7.22;;;;;;;14.21;56.75;99154.22;5050268;28;20029;-52
2021/10/13 05:25:39;;;;;;;34.28;5.10;;;;;;;14.13;56.98;99151.84;5050204;28;20024;-53
2021/10/13 05:28:05;;;;;;;22.05;4.78;;;;;;;14.01;57.44;99145.63;5051620;28;20100;-53
2021/10/13 05:30:30;;;;;;;25.75;5.43;;;;;;;13.90;57.24;99144.44;5050249;28;20029;-53
2021/10/13 05:32:56;;;;;;;31.50;6.55;;;;;;;13.73;57.37;99157.31;5051344;28;20523;-53
2021/10/13 05:35:22;;;;;;;16.83;4.50;;;;;;;13.31;58.31;99143.63;5050197;28;20116;-53
2021/10/13 05:37:48;;;;;;;23.30;5.57;;;;;;;13.16;59.08;99157.03;5055206;28;20029;-52
2021/10/13 05:40:13;;;;;;;24.75;5.65;;;;;;;13.19;59.25;99154.75;5054276;28;20376;-52
2021/10/13 05:42:39;;;;;;;26.95;5.60;;;;;;;13.19;58.95;99167.94;5055459;28;20021;-53
2021/10/13 05:45:05;;;;;;;13.40;4.85;;;;;;;13.02;59.53;99172.03;5054078;28;20035;-53
2021/10/13 05:47:31;;;;;;;15.30;4.70;;;;;;;12.80;60.09;99171.44;5055449;28;20033;-53
2021/10/13 05:49:57;;;;;;;15.45;5.15;;;;;;;12.78;60.24;99184.81;5055362;28;20028;-52
2021/10/13 05:52:23;;;;;;;15.20;4.68;;;;;;;12.78;60.35;99174.25;5053995;28;20036;-52
2021/10/13 05:54:49;;;;;;;14.18;4.68;;;;;;;12.72;60.98;99192.72;5053946;28;20025;-52
2021/10/13 05:57:14;;;;;;;24.10;5.15;;;;;;;12.82;60.91;99193.13;5055244;28;20116;-52
2021/10/13 05:59:42;;;;;;;18.48;5.15;;;;;;;12.66;60.57;99196.16;5053926;28;20020;-52
2021/10/13 06:02:07;;;;;;;23.52;5.80;;;;;;;12.48;61.08;99199.34;5055123;28;20121;-52
2021/10/13 06:04:33;;;;;;;19.08;6.45;;;;;;;12.38;61.46;99207.63;5053799;28;20463;-52
2021/10/13 06:06:59;;;;;;;30.75;24.42;;;;;;;12.11;62.04;99202.31;5053659;28;20082;-52
2021/10/13 06:09:25;;;;;;;21.42;6.22;;;;;;;11.98;62.60;99204.88;5053749;28;20495;-52
2021/10/13 06:11:50;;;;;;;25.45;5.88;;;;;;;11.93;62.84;99209.91;5054932;28;20045;-52
2021/10/13 06:14:16;;;;;;;23.13;6.20;;;;;;;12.07;63.01;99208.94;5054993;28;20045;-53
2021/10/13 06:16:42;;;;;;;24.50;5.93;;;;;;;12.14;63.20;99212.41;5054841;28;20418;-52
2021/10/13 06:19:07;;;;;;;13.02;5.68;;;;;;;12.24;62.79;99213.88;5054851;28;20063;-53
2021/10/13 06:21:33;;;;;;;21.67;6.10;;;;;;;12.26;62.77;99212.66;5053490;28;20025;-53
2021/10/13 06:23:59;;;;;;;21.10;5.10;;;;;;;12.38;63.08;99218.16;5053424;28;20029;-52
2021/10/13 06:26:24;;;;;;;34.75;8.20;;;;;;;12.67;62.29;99219.63;5054623;28;20025;-52
2021/10/13 06:28:50;;;;;;;18.83;5.70;;;;;;;12.85;61.98;99226.94;5053333;28;20029;-52
2021/10/13 06:31:17;;;;;;;32.50;7.07;;;;;;;13.05;61.72;99207.69;5054605;28;20025;-52
2021/10/13 06:33:43;;;;;;;25.75;6.30;;;;;;;13.15;61.04;99210.72;5054361;28;20041;-53
2021/10/13 06:36:12;;;;;;;31.75;6.80;;;;;;;13.30;60.79;99206.09;5053212;28;20029;-53
2021/10/13 06:38:37;;;;;;;25.63;7.28;;;;;;;13.44;60.45;99209.53;5053174;28;20090;-53
2021/10/13 06:41:06;;;;;;;28.13;5.95;;;;;;;13.52;60.12;99219.84;5054421;28;20029;-53
2021/10/13 06:43:32;;;;;;;16.92;5.82;;;;;;;13.50;59.86;99223.69;5054386;28;20025;-52
2021/10/13 06:45:57;;;;;;;27.42;7.40;;;;;;;13.36;60.49;99218.47;5054274;28;20075;-52
2021/10/13 06:48:26;;;;;;;21.52;5.30;;;;;;;13.50;60.56;99221.88;5052351;28;20027;-52
2021/10/13 06:50:51;;;;;;;13.70;5.10;;;;;;;13.64;60.04;99227.13;5052872;28;20021;-53
2021/10/13 06:53:18;;;;;;;16.77;5.50;;;;;;;13.71;59.66;99228.72;5052885;28;20031;-53
2021/10/13 06:55:43;;;;;;;12.23;5.22;;;;;;;13.82;59.42;99237.81;5054162;28;20025;-53
2021/10/13 06:58:10;;;;;;;14.75;5.32;;;;;;;13.84;59.07;99242.88;5054106;28;20124;-52
2021/10/13 07:00:35;;;;;;;13.07;4.90;;;;;;;13.86;58.98;99251.41;5054009;28;20051;-52
2021/10/13 07:03:02;;;;;;;22.50;6.75;;;;;;;13.89;59.21;99243.09;5052720;28;20028;-52
2021/10/13 07:05:27;;;;;;;15.98;4.95;;;;;;;13.91;58.98;99244.50;5052863;28;20021;-52
2021/10/13 07:07:53;;;;;;;12.07;4.88;;;;;;;13.91;59.30;99244.50;5053906;28;20372;-52
2021/10/13 07:10:19;;;;;;;18.45;6.40;;;;;;;13.87;58.60;99251.19;5052596;28;20380;-52
2021/10/13 07:12:46;;;;;;;14.13;5.15;;;;;;;13.88;59.36;99250.16;5054111;28;20032;-52
2021/10/13 07:15:12;;;;;;;11.15;5.00;;;;;;;13.90;59.28;99248.13;5052476;28;20112;-52
2021/10/13 07:17:38;;;;;;;14.25;6.38;;;;;;;13.87;59.26;99253.03;5053812;28;20029;-52
2021/10/13 07:20:06;;;;;;;22.20;6.53;;;;;;;13.86;59.53;99248.75;5052391;28;20021;-52
2021/10/13 07:22:34;;;;;;;14.95;8.23;;;;;;;13.87;59.52;99243.28;5053907;28;20368;-53
2021/10/13 07:25:00;;;;;;;7.72;4.75;;;;;;;13.92;59.39;99245.28;5053581;28;20032;-52
2021/10/13 07:27:28;;;;;;;14.55;5.15;;;;;;;13.89;59.26;99251.00;5053576;28;20033;-52
2021/10/13 07:30:01;;;;;;;11.63;5.40;;;;;;;13.89;59.36;99258.91;5053533;28;20017;-52
2021/10/13 07:32:30;;;;;;;13.82;6.13;;;;;;;13.87;59.04;99261.75;5053276;28;20131;-52
2021/10/13 07:34:55;;;;;;;11.70;5.20;;;;;;;13.84;59.50;99264.00;5052109;28;20044;-52
2021/10/13 07:37:28;;;;;;;10.60;5.20;;;;;;;13.95;59.57;99271.28;5052097;28;20491;-52
2021/10/13 07:39:55;;;;;;;13.50;5.70;;;;;;;14.10;59.00;99269.19;5051997;28;20043;-52
2021/10/13 07:42:24;;;;;;;9.93;5.07;;;;;;;14.09;59.10;99266.78;5053299;28;20549;-52
2021/10/13 07:44:49;;;;;;;12.73;4.78;;;;;;;14.08;58.85;99265.13;5053153;28;20017;-52
2021/10/13 07:47:15;;;;;;;18.15;5.40;;;;;;;14.24;58.70;99255.94;5053191;28;20040;-52
2021/10/13 07:49:41;;;;;;;16.92;5.68;;;;;;;14.56;58.23;99268.19;5053372;28;20033;-52
2021/10/13 07:52:07;;;;;;;12.10;5.95;;;;;;;14.87;57.43;99273.69;5051762;28;20384;-52
2021/10/13 07:54:33;;;;;;;35.97;6.13;;;;;;;15.02;57.05;99265.47;5053077;28;20028;-52
2021/10/13 07:56:59;;;;;;;94.68;10.32;;;;;;;15.35;56.43;99266.03;5052977;28;20029;-52
2021/10/13 07:59:25;;;;;;;85.43;10.23;;;;;;;16.00;55.48;99264.81;5050910;28;20091;-53
2021/10/13 08:01:51;;;;;;;197.13;15.48;;;;;;;17.10;52.84;99244.34;5051332;28;20060;-53
2021/10/13 08:04:16;;;;;;;89.57;15.35;;;;;;;18.21;50.69;99241.72;5051557;28;20025;-53
2021/10/13 08:06:42;;;;;;;47.13;6.57;;;;;;;18.84;48.21;99245.28;5051377;28;20029;-51
2021/10/13 08:09:11;;;;;;;15.95;5.20;;;;;;;18.84;47.33;99257.78;5052751;28;20017;-50
2021/10/13 08:11:37;;;;;;;11.90;4.25;;;;;;;18.67;47.28;99263.00;5052667;28;20104;-50
2021/10/13 08:14:03;;;;;;;12.30;4.05;;;;;;;18.08;48.34;99250.75;5051407;28;20462;-50
2021/10/13 08:16:29;;;;;;;12.93;4.25;;;;;;;17.98;48.89;99255.06;5051315;28;20120;-50
2021/10/13 08:18:54;;;;;;;12.32;4.07;;;;;;;18.19;48.57;99259.75;5051384;28;20035;-50
2021/10/13 08:21:29;;;;;;;10.35;3.88;;;;;;;18.35;47.87;99244.88;5109606;27;20415;-52
2021/10/13 08:23:55;;;;;;;14.05;4.40;;;;;;;18.58;47.39;99251.16;5109673;28;20036;-51
2021/10/13 08:26:21;;;;;;;6.95;4.00;;;;;;;18.77;46.65;99253.38;5109858;28;20016;-51
2021/10/13 08:28:47;;;;;;;10.15;3.95;;;;;;;18.83;46.30;99251.63;5110670;28;20454;-50
2021/10/13 08:31:14;;;;;;;13.27;3.75;;;;;;;19.40;45.41;99252.50;5108217;28;20548;-50
2021/10/13 08:33:41;;;;;;;10.57;3.65;;;;;;;19.53;45.16;99255.63;5109647;28;20524;-50
2021/10/13 08:36:07;;;;;;;8.77;3.63;;;;;;;20.01;43.77;99258.69;5108088;28;20417;-50
2021/10/13 08:38:33;;;;;;;14.07;3.67;;;;;;;20.72;42.29;99249.88;5108045;28;20062;-50
2021/10/13 08:40:59;;;;;;;9.65;3.60;;;;;;;20.95;41.78;99251.41;5109293;28;20104;-50
2021/10/13 08:43:24;;;;;;;8.65;3.58;;;;;;;20.95;41.93;99254.88;5108001;28;20028;-50
2021/10/13 08:45:51;;;;;;;13.65;4.53;;;;;;;20.92;41.64;99257.25;5109200;28;20533;-50
2021/10/13 08:48:16;;;;;;;10.70;3.25;;;;;;;20.55;41.85;99247.28;5107881;28;20026;-50
2021/10/13 08:50:42;;;;;;;10.15;4.00;;;;;;;19.87;42.89;99254.78;5107823;28;20056;-50
2021/10/13 08:53:14;;;;;;;14.75;4.57;;;;;;;19.63;43.52;99254.97;5107719;28;20035;-50
2021/10/13 08:55:42;;;;;;;15.30;3.80;;;;;;;19.26;43.89;99252.84;5109081;28;20371;-50
2021/10/13 08:58:12;;;;;;;15.02;3.67;;;;;;;18.81;45.31;99261.69;5107711;28;20029;-50
2021/10/13 09:00:39;;;;;;;9.30;3.45;;;;;;;18.68;45.53;99254.81;5108897;28;20051;-50
2021/10/13 09:03:06;;;;;;;15.65;3.40;;;;;;;18.70;46.01;99255.38;5108969;28;20016;-50
2021/10/13 09:05:31;;;;;;;13.52;3.70;;;;;;;18.85;45.61;99249.53;5107580;28;20493;-50
2021/10/13 09:07:59;;;;;;;9.40;3.42;;;;;;;18.96;45.22;99255.84;5108843;28;20111;-49
2021/10/13 09:10:34;;;;;;;8.45;3.35;;;;;;;19.30;44.07;99261.16;5108769;28;20027;-50
2021/10/13 09:13:02;;;;;;;13.15;3.15;;;;;;;20.36;42.36;99265.47;5107456;28;20059;-50
2021/10/13 09:15:29;;;;;;;6.28;2.80;;;;;;;21.02;40.72;99260.00;5107350;28;20071;-49
2021/10/13 09:17:59;;;;;;;12.48;3.17;;;;;;;21.85;38.97;99262.19;5108642;28;20022;-50
2021/10/13 09:20:29;;;;;;;12.13;3.92;;;;;;;22.51;37.79;99263.47;5108363;28;20040;-50
2021/10/13 09:23:15;;;;;;;5.70;2.72;;;;;;;23.59;36.21;99253.56;5108551;28;20024;-48
2021/10/13 09:25:42;;;;;;;13.82;3.00;;;;;;;24.03;35.11;99260.97;5108064;28;20040;-48
2021/10/13 09:28:08;;;;;;;17.38;3.20;;;;;;;24.58;34.63;99260.16;5108546;28;20074;-48
2021/10/13 09:30:40;;;;;;;15.27;3.60;;;;;;;25.35;32.73;99252.28;5108088;28;20029;-48
2021/10/13 09:33:18;;;;;;;8.73;2.45;;;;;;;26.27;31.99;99256.63;5094525;28;20107;-48
2021/10/13 09:35:47;;;;;;;10.20;2.63;;;;;;;26.62;31.09;99248.34;5094807;28;20432;-48
2021/10/13 09:38:18;;;;;;;7.95;2.67;;;;;;;26.82;29.10;99247.22;5094755;28;20026;-48
2021/10/13 09:40:46;;;;;;;3.13;1.85;;;;;;;26.64;28.99;99247.00;5094630;28;20024;-48
2021/10/13 09:43:45;;;;;;;8.70;2.65;;;;;;;26.52;30.17;99243.88;5093316;28;20402;-48
2021/10/13 09:46:13;;;;;;;5.88;2.60;;;;;;;26.53;29.62;99247.41;5060612;28;20076;-48
2021/10/13 09:48:44;;;;;;;8.35;2.40;;;;;;;26.57;29.12;99245.72;5093210;28;20031;-48
2021/10/13 09:51:19;;;;;;;13.00;2.53;;;;;;;26.63;28.39;99241.88;5094452;28;20024;-48
2021/10/13 09:53:47;;;;;;;7.20;2.38;;;;;;;26.31;27.89;99244.19;5094455;28;20024;-48
2021/10/13 09:56:35;;;;;;;6.57;1.88;;;;;;;25.69;28.36;99236.06;5094291;28;20074;-48
2021/10/13 09:59:15;;;;;;;13.73;3.03;;;;;;;25.20;27.64;99223.66;5092985;28;20028;-47
2021/10/13 10:01:47;;;;;;;11.43;1.92;;;;;;;23.99;29.43;99238.47;5094201;28;20107;-48
2021/10/13 10:04:17;;;;;;;4.53;1.55;;;;;;;23.66;29.36;99230.00;5094221;28;20020;-47
2021/10/13 10:06:49;;;;;;;4.25;1.40;;;;;;;23.48;29.45;99231.38;5092834;28;20436;-48
2021/10/13 10:09:20;;;;;;;7.78;1.67;;;;;;;23.61;29.38;99232.66;5094193;28;20036;-47
2021/10/13 10:11:47;;;;;;;5.15;1.60;;;;;;;24.00;28.79;99226.63;5094082;28;20526;-48
2021/10/13 10:14:35;;;;;;;7.60;1.65;;;;;;;24.05;29.65;99223.94;5094058;28;20046;-48
2021/10/13 10:17:03;;;;;;;9.30;2.10;;;;;;;24.65;29.73;99228.44;5093982;28;20027;-48
2021/10/13 10:19:49;;;;;;;16.75;2.30;;;;;;;25.14;29.29;99214.06;5093537;28;20052;-47
2021/10/13 10:22:18;;;;;;;5.97;2.10;;;;;;;24.28;29.50;99227.84;5093490;28;20045;-48
2021/10/13 10:24:47;;;;;;;5.60;1.95;;;;;;;22.71;32.31;99228.72;5093728;28;20398;-46
2021/10/13 10:27:20;;;;;;;4.88;2.22;;;;;;;22.06;33.57;99222.16;5093733;28;20048;-47
2021/10/13 10:29:47;;;;;;;8.43;1.98;;;;;;;22.37;33.33;99235.63;5093789;28;20027;-48
2021/10/13 10:32:18;;;;;;;7.82;1.67;;;;;;;23.15;31.69;99229.28;5093632;28;20016;-47
2021/10/13 10:35:08;;;;;;;4.93;2.20;;;;;;;24.03;30.84;99238.72;5093580;28;20059;-47
2021/10/13 10:37:43;;;;;;;7.63;1.92;;;;;;;24.39;30.58;99243.88;5082174;28;20035;-48
2021/10/13 10:40:11;;;;;;;4.72;2.40;;;;;;;24.85;29.49;99241.72;5093367;28;20046;-48
2021/10/13 10:42:44;;;;;;;9.00;3.55;;;;;;;24.70;29.44;99250.66;5091473;28;20036;-48
2021/10/13 10:45:14;;;;;;;7.57;1.90;;;;;;;24.29;30.14;99250.13;5093168;28;20030;-48
2021/10/13 10:48:00;;;;;;;3.60;1.70;;;;;;;24.16;30.06;99251.50;5093621;28;20024;-48
2021/10/13 10:50:29;;;;;;;;;;;;;;;23.35;30.93;99233.81;5092456;28;20028;-48
2021/10/13 10:53:17;;;;;;;9.23;2.42;;;;;;;22.65;32.75;99253.88;5091896;28;19908;-48
2021/10/13 10:55:44;;;;;;;6.88;2.10;;;;;;;22.27;33.45;99257.81;5093142;28;20035;-47
2021/10/13 10:58:23;;;;;;;8.35;2.50;;;;;;;21.71;33.75;99258.34;5091835;28;20024;-47
2021/10/13 11:01:02;;;;;;;6.63;2.20;;;;;;;20.51;35.42;99259.53;5093062;28;20048;-48
2021/10/13 11:03:43;;;;;;;6.88;2.30;;;;;;;19.94;36.81;99261.56;5093085;28;20020;-47
2021/10/13 11:06:15;;;;;;;6.30;2.38;;;;;;;20.15;36.51;99261.78;5093014;28;20405;-48
2021/10/13 11:08:51;;;;;;;5.97;1.85;;;;;;;21.02;36.24;99237.84;5091658;28;20056;-47
2021/10/13 11:11:17;;;;;;;8.43;2.08;;;;;;;21.51;33.55;99245.66;5092887;28;20024;-48
2021/10/13 11:14:21;;;;;;;8.10;1.80;;;;;;;21.11;34.34;99247.81;5092853;28;20028;-48
2021/10/13 11:16:54;;;;;;;10.65;1.88;;;;;;;20.61;34.94;99256.19;5093060;28;20036;-48
2021/10/13 11:19:35;;;;;;;8.30;2.10;;;;;;;19.74;36.36;99262.09;5091111;28;20028;-48
2021/10/13 11:22:06;;;;;;;5.38;1.90;;;;;;;19.39;37.50;99258.88;5091402;28;20501;-48
2021/10/13 11:24:35;;;;;;;4.70;1.77;;;;;;;18.96;38.42;99267.28;5092713;28;20028;-48
2021/10/13 11:27:02;;;;;;;4.25;1.58;;;;;;;18.88;38.43;99261.56;5092559;28;20020;-48
2021/10/13 11:29:31;;;;;;;4.90;1.98;;;;;;;18.68;38.43;99260.13;5091248;28;20502;-47
2021/10/13 11:32:15;;;;;;;4.40;1.50;;;;;;;19.31;38.20;99255.56;5091238;28;20497;-48
2021/10/13 11:34:43;;;;;;;7.85;1.90;;;;;;;20.22;35.55;99241.09;5091133;28;20059;-47
2021/10/13 11:37:10;;;;;;;12.07;2.00;;;;;;;20.03;35.37;99256.59;5091081;28;20031;-48